Time;durP1;ratioP1;P1;durP2;ratioP2;P2;SDS_P1;SDS_P2;PMS_P1;PMS_P2;Temp;Humidity;BMP_temperature;BMP_pressure;BME280_temperature;BME280_humidity;BME280_pressure;Samples;Min_cycle;Max_cycle;Signal;HPM_P1;HPM_P2
2021/12/09 00:01:46;;;;;;;3.75;2.10;;;6.70;99.90;;;;;;4992947;28;20224;-76
2021/12/09 00:04:18;;;;;;;4.95;2.45;;;6.60;99.90;;;;;;4993042;28;20680;-77
2021/12/09 00:06:45;;;;;;;5.45;2.50;;;6.60;99.90;;;;;;4993746;28;20571;-76
2021/12/09 00:09:15;;;;;;;5.25;2.72;;;6.60;99.90;;;;;;4992953;28;20209;-77
2021/12/09 00:11:45;;;;;;;5.97;2.78;;;6.30;99.90;;;;;;4995531;28;20240;-76
2021/12/09 00:14:15;;;;;;;7.50;3.08;;;6.20;99.90;;;;;;4995066;28;20212;-76
2021/12/09 00:16:42;;;;;;;7.30;2.00;;;6.20;99.90;;;;;;4995477;28;20212;-76
2021/12/09 00:19:09;;;;;;;5.28;2.22;;;6.00;99.90;;;;;;4995224;28;20239;-76
2021/12/09 00:21:36;;;;;;;4.72;2.05;;;6.10;99.90;;;;;;4994906;28;20727;-77
2021/12/09 00:24:04;;;;;;;6.82;2.95;;;5.90;99.90;;;;;;4995093;28;20303;-77
2021/12/09 00:26:32;;;;;;;5.90;2.47;;;5.90;99.90;;;;;;4994752;28;20306;-77
2021/12/09 00:29:00;;;;;;;5.95;1.88;;;5.80;99.90;;;;;;4995133;28;20310;-76
2021/12/09 00:31:27;;;;;;;6.72;2.20;;;5.70;99.90;;;;;;4993862;28;20396;-76
2021/12/09 00:33:56;;;;;;;5.93;2.38;;;5.70;99.90;;;;;;4994038;28;20208;-76
2021/12/09 00:36:31;;;;;;;6.22;2.10;;;5.70;99.90;;;;;;4994104;28;20657;-76
2021/12/09 00:38:59;;;;;;;6.70;2.00;;;5.60;99.90;;;;;;4994530;28;20219;-77
2021/12/09 00:41:26;;;;;;;4.50;1.58;;;5.60;99.90;;;;;;4994535;28;20661;-77
2021/12/09 00:43:54;;;;;;;6.18;1.88;;;5.80;99.90;;;;;;4994414;28;20204;-77
2021/12/09 00:46:22;;;;;;;7.15;1.90;;;5.80;99.90;;;;;;4994102;28;20299;-76
2021/12/09 00:48:50;;;;;;;4.78;2.22;;;5.80;99.90;;;;;;4994758;28;20220;-76
2021/12/09 00:51:18;;;;;;;4.60;2.00;;;5.70;99.90;;;;;;4993558;28;20277;-76
2021/12/09 00:53:44;;;;;;;6.43;2.33;;;5.80;99.90;;;;;;4993958;28;20577;-77
2021/12/09 00:56:15;;;;;;;4.63;2.45;;;5.80;99.90;;;;;;4993887;28;20236;-76
2021/12/09 00:58:43;;;;;;;6.15;2.13;;;5.80;99.90;;;;;;4994445;28;20259;-76
2021/12/09 01:01:11;;;;;;;6.35;2.22;;;5.80;99.90;;;;;;4994959;28;20227;-76
2021/12/09 01:03:41;;;;;;;3.65;1.98;;;5.80;99.90;;;;;;4994594;28;20279;-76
2021/12/09 01:06:09;;;;;;;4.85;1.83;;;5.60;99.90;;;;;;4997052;28;20216;-76
2021/12/09 01:08:36;;;;;;;10.05;2.47;;;5.70;99.90;;;;;;4999944;28;20208;-76
2021/12/09 01:11:07;;;;;;;5.15;1.83;;;6.00;99.90;;;;;;4994331;28;20282;-76
2021/12/09 01:13:35;;;;;;;5.13;2.17;;;5.80;99.90;;;;;;4994780;28;20215;-76
2021/12/09 01:16:03;;;;;;;5.82;2.13;;;6.00;99.90;;;;;;4994754;28;20212;-76
2021/12/09 01:18:30;;;;;;;4.28;1.95;;;5.70;99.90;;;;;;4994305;28;20215;-76
2021/12/09 01:20:59;;;;;;;4.63;2.00;;;5.80;99.90;;;;;;4994758;28;20653;-76
2021/12/09 01:23:26;;;;;;;7.60;2.30;;;5.60;99.90;;;;;;4995318;28;20598;-76
2021/12/09 01:25:58;;;;;;;4.93;1.90;;;5.70;99.90;;;;;;4999372;28;20211;-76
2021/12/09 01:28:28;;;;;;;5.85;2.17;;;5.90;99.90;;;;;;4999520;28;20525;-76
2021/12/09 01:31:01;;;;;;;5.32;2.53;;;5.60;99.90;;;;;;4999646;28;20228;-77
2021/12/09 01:33:28;;;;;;;6.70;2.70;;;5.70;99.90;;;;;;4999721;28;20197;-76
2021/12/09 01:35:55;;;;;;;5.50;2.25;;;5.90;99.90;;;;;;5000921;28;20215;-76
2021/12/09 01:38:27;;;;;;;6.30;2.80;;;5.70;99.90;;;;;;5000881;28;20298;-77
2021/12/09 01:40:55;;;;;;;4.03;2.40;;;5.70;99.90;;;;;;5001034;28;20228;-76
2021/12/09 01:43:22;;;;;;;5.07;2.80;;;5.80;99.90;;;;;;5000913;28;20215;-77
2021/12/09 01:45:49;;;;;;;6.72;3.28;;;5.70;99.90;;;;;;5001123;28;20215;-76
2021/12/09 01:48:17;;;;;;;5.10;2.55;;;5.70;99.90;;;;;;5002998;28;20212;-76
2021/12/09 01:50:43;;;;;;;4.97;2.65;;;5.60;99.90;;;;;;5005563;28;20319;-76
2021/12/09 01:53:10;;;;;;;7.82;3.20;;;5.70;99.90;;;;;;5000810;28;20218;-76
2021/12/09 01:55:39;;;;;;;7.63;3.88;;;5.80;99.90;;;;;;4999782;28;20238;-77
2021/12/09 01:58:05;;;;;;;9.00;3.15;;;5.70;99.90;;;;;;4999135;28;20255;-77
2021/12/09 02:00:37;;;;;;;5.53;2.80;;;5.80;99.90;;;;;;4998871;28;20235;-77
2021/12/09 02:03:05;;;;;;;5.72;3.20;;;5.80;99.90;;;;;;4998826;28;20661;-77
2021/12/09 02:05:33;;;;;;;7.35;2.80;;;6.00;99.90;;;;;;4998733;28;20212;-77
2021/12/09 02:08:00;;;;;;;7.88;2.90;;;6.00;99.90;;;;;;4999135;28;20208;-78
2021/12/09 02:10:28;;;;;;;8.20;3.50;;;5.90;99.90;;;;;;4996360;28;20331;-78
2021/12/09 02:12:56;;;;;;;6.30;2.85;;;5.90;99.90;;;;;;4997555;28;20644;-77
2021/12/09 02:15:25;;;;;;;4.40;2.50;;;5.70;99.90;;;;;;4996903;28;20227;-76
2021/12/09 02:17:52;;;;;;;7.40;3.30;;;5.70;99.90;;;;;;4996156;28;20212;-76
2021/12/09 02:20:19;;;;;;;5.65;3.17;;;5.70;99.90;;;;;;4994865;28;20735;-77
2021/12/09 02:22:48;;;;;;;6.57;2.65;;;5.80;99.90;;;;;;4994952;28;20228;-76
2021/12/09 02:25:16;;;;;;;5.68;2.92;;;5.70;99.90;;;;;;4995317;28;20211;-77
2021/12/09 02:27:44;;;;;;;6.45;3.50;;;5.70;99.90;;;;;;4995390;28;20685;-76
2021/12/09 02:30:12;;;;;;;7.55;3.42;;;5.70;99.90;;;;;;4995189;28;20315;-76
2021/12/09 02:32:39;;;;;;;7.40;4.03;;;5.90;99.90;;;;;;4994806;28;20243;-76
2021/12/09 02:35:06;;;;;;;6.60;3.70;;;6.00;99.90;;;;;;4995296;28;20611;-76
2021/12/09 02:37:33;;;;;;;8.05;3.70;;;5.90;99.90;;;;;;4994472;28;20218;-76
2021/12/09 02:40:02;;;;;;;11.13;3.30;;;5.90;99.90;;;;;;4995088;28;20319;-76
2021/12/09 02:42:29;;;;;;;5.35;3.17;;;5.80;99.90;;;;;;4994985;28;20208;-76
2021/12/09 02:44:57;;;;;;;11.90;3.85;;;5.90;99.90;;;;;;4994716;28;20204;-77
2021/12/09 02:47:24;;;;;;;7.55;3.95;;;5.60;99.90;;;;;;4995701;28;20208;-76
2021/12/09 02:49:51;;;;;;;7.40;4.45;;;5.80;99.90;;;;;;5002516;28;20659;-76
2021/12/09 02:52:19;;;;;;;8.45;3.78;;;5.90;99.90;;;;;;4995076;28;20230;-76
2021/12/09 02:54:46;;;;;;;10.55;5.07;;;6.00;99.90;;;;;;4994770;28;20208;-76
2021/12/09 02:57:14;;;;;;;6.50;4.13;;;5.70;99.90;;;;;;4994621;28;20644;-77
2021/12/09 02:59:41;;;;;;;8.65;4.30;;;5.70;99.90;;;;;;4994048;28;20208;-77
2021/12/09 03:02:10;;;;;;;12.23;4.70;;;5.70;99.90;;;;;;4994639;28;20208;-77
2021/12/09 03:04:41;;;;;;;8.70;4.47;;;5.70;99.90;;;;;;4994280;28;20212;-77
2021/12/09 03:07:10;;;;;;;17.63;5.53;;;5.60;99.90;;;;;;4994686;28;20224;-77
2021/12/09 03:09:37;;;;;;;7.90;4.60;;;5.70;99.90;;;;;;4993639;28;20534;-75
2021/12/09 03:12:12;;;;;;;12.93;5.78;;;5.80;99.90;;;;;;4994074;28;20238;-76
2021/12/09 03:14:40;;;;;;;11.32;4.68;;;5.90;99.90;;;;;;4993969;28;20206;-76
2021/12/09 03:17:07;;;;;;;8.73;5.05;;;6.10;99.90;;;;;;4994487;28;20583;-76
2021/12/09 03:19:33;;;;;;;7.45;4.70;;;6.00;99.90;;;;;;4994112;28;20211;-76
2021/12/09 03:22:00;;;;;;;13.48;4.80;;;5.80;99.90;;;;;;4993869;28;20295;-76
2021/12/09 03:24:27;;;;;;;8.07;3.90;;;5.90;99.90;;;;;;4993578;28;20222;-77
2021/12/09 03:26:58;;;;;;;6.57;3.90;;;5.90;99.90;;;;;;4994566;28;20235;-76
2021/12/09 03:29:27;;;;;;;13.75;4.80;;;6.10;99.90;;;;;;4994382;28;20295;-76
2021/12/09 03:31:58;;;;;;;13.43;4.57;;;5.90;99.90;;;;;;4993745;28;20697;-76
2021/12/09 03:34:28;;;;;;;9.02;4.88;;;6.10;99.90;;;;;;4993455;28;20234;-77
2021/12/09 03:36:56;;;;;;;10.75;4.68;;;6.10;99.90;;;;;;4994121;28;20192;-76
2021/12/09 03:39:27;;;;;;;14.40;4.95;;;6.00;99.90;;;;;;4994508;28;20649;-76
2021/12/09 03:41:55;;;;;;;10.15;4.68;;;6.30;99.90;;;;;;4994353;28;20224;-76
2021/12/09 03:44:23;;;;;;;7.72;4.53;;;6.00;99.90;;;;;;4996549;28;20212;-76
2021/12/09 03:46:52;;;;;;;9.13;4.60;;;6.00;99.90;;;;;;4996114;28;20212;-76
2021/12/09 03:49:21;;;;;;;8.20;4.80;;;6.20;99.90;;;;;;4993784;28;20572;-76
2021/12/09 03:51:47;;;;;;;8.65;5.05;;;5.90;99.90;;;;;;4993331;28;20318;-76
2021/12/09 03:54:14;;;;;;;14.57;4.10;;;6.00;99.90;;;;;;4993497;28;20211;-76
2021/12/09 03:56:42;;;;;;;11.05;4.30;;;6.10;99.90;;;;;;4994343;28;20216;-76
2021/12/09 03:59:10;;;;;;;10.15;4.72;;;6.00;99.90;;;;;;4993197;28;20683;-77
2021/12/09 04:01:39;;;;;;;8.38;4.07;;;6.20;99.90;;;;;;4993428;28;20243;-77
2021/12/09 04:04:07;;;;;;;15.00;4.50;;;6.20;99.90;;;;;;4993097;28;20215;-78
2021/12/09 04:06:35;;;;;;;10.10;4.95;;;6.50;99.90;;;;;;4995305;28;20550;-76
2021/12/09 04:09:04;;;;;;;9.68;5.10;;;6.40;99.90;;;;;;4993296;28;20314;-76
2021/12/09 04:11:31;;;;;;;12.82;4.32;;;6.30;99.90;;;;;;4993066;28;20235;-76
2021/12/09 04:13:58;;;;;;;6.60;4.05;;;6.20;99.90;;;;;;4993489;28;20208;-76
2021/12/09 04:16:26;;;;;;;12.90;5.25;;;6.20;99.90;;;;;;4993143;28;20204;-76
2021/12/09 04:18:53;;;;;;;10.80;4.88;;;6.40;99.90;;;;;;4993572;28;20210;-76
2021/12/09 04:21:20;;;;;;;8.23;4.03;;;6.30;99.90;;;;;;4993576;28;20315;-76
2021/12/09 04:23:48;;;;;;;8.85;4.22;;;6.20;99.90;;;;;;4993732;28;20212;-77
2021/12/09 04:26:15;;;;;;;12.60;4.35;;;6.40;99.90;;;;;;4993060;28;20208;-76
2021/12/09 04:28:42;;;;;;;7.47;4.05;;;6.10;99.90;;;;;;4995906;28;20189;-76
2021/12/09 04:31:09;;;;;;;9.68;4.55;;;6.20;99.90;;;;;;5001611;28;20232;-76
2021/12/09 04:33:35;;;;;;;13.73;4.72;;;6.30;99.90;;;;;;4994538;28;20208;-76
2021/12/09 04:36:02;;;;;;;9.48;4.75;;;6.10;99.90;;;;;;4993371;28;20215;-76
2021/12/09 04:38:29;;;;;;;13.82;4.80;;;6.00;99.90;;;;;;4993166;28;20220;-76
2021/12/09 04:40:58;;;;;;;9.35;4.13;;;5.90;99.90;;;;;;4992887;28;20283;-76
2021/12/09 04:43:25;;;;;;;13.40;4.38;;;6.00;99.90;;;;;;4993256;28;20704;-76
2021/12/09 04:45:51;;;;;;;10.25;5.15;;;5.90;99.90;;;;;;4993170;28;20238;-76
2021/12/09 04:48:18;;;;;;;13.60;4.80;;;6.00;99.90;;;;;;4993339;28;20597;-77
2021/12/09 04:50:46;;;;;;;6.78;4.38;;;5.90;99.90;;;;;;4993088;28;20232;-77
2021/12/09 04:53:13;;;;;;;10.45;4.57;;;6.00;99.90;;;;;;4993062;28;20638;-76
2021/12/09 04:55:40;;;;;;;12.60;4.65;;;6.00;99.90;;;;;;4993773;28;20299;-76
2021/12/09 04:58:08;;;;;;;10.75;4.47;;;6.00;99.90;;;;;;4993192;28;20212;-75
2021/12/09 05:00:38;;;;;;;7.30;3.95;;;6.00;99.90;;;;;;4996609;28;20227;-75
2021/12/09 05:03:08;;;;;;;7.03;3.55;;;6.20;99.90;;;;;;4996819;28;20236;-76
2021/12/09 05:05:38;;;;;;;10.82;4.38;;;6.20;99.90;;;;;;4997085;28;20283;-76
2021/12/09 05:08:06;;;;;;;8.88;4.20;;;6.10;99.90;;;;;;4996371;28;20247;-76
2021/12/09 05:13:02;;;;;;;10.98;4.15;;;6.10;99.90;;;;;;5059698;22;20239;-77
2021/12/09 05:15:30;;;;;;;8.10;3.60;;;6.10;99.90;;;;;;5037194;28;20583;-77
2021/12/09 05:17:57;;;;;;;7.13;4.20;;;6.10;99.90;;;;;;5036385;28;20238;-77
2021/12/09 05:20:23;;;;;;;11.85;3.35;;;6.20;99.90;;;;;;5036415;28;20213;-77
2021/12/09 05:22:50;;;;;;;12.07;3.97;;;6.00;99.90;;;;;;5036654;28;20317;-77
2021/12/09 05:25:17;;;;;;;9.18;4.10;;;6.00;99.90;;;;;;5037043;28;20294;-77
2021/12/09 05:27:44;;;;;;;7.70;3.85;;;6.30;99.90;;;;;;5037670;28;20213;-77
2021/12/09 05:30:12;;;;;;;9.32;4.03;;;6.20;99.90;;;;;;5036575;28;20265;-76
2021/12/09 05:32:40;;;;;;;6.50;3.25;;;6.20;99.90;;;;;;5036259;28;20223;-77
2021/12/09 05:35:08;;;;;;;8.48;3.92;;;6.20;99.90;;;;;;5036358;28;20211;-77
2021/12/09 05:37:35;;;;;;;8.65;3.33;;;6.10;99.90;;;;;;5036123;28;20257;-76
2021/12/09 05:40:02;;;;;;;12.20;4.50;;;6.30;99.90;;;;;;5036237;28;20210;-77
2021/12/09 05:42:28;;;;;;;9.00;3.67;;;6.30;99.90;;;;;;5036001;28;20250;-76
2021/12/09 05:44:57;;;;;;;10.20;4.63;;;6.40;99.90;;;;;;5035916;28;20213;-76
2021/12/09 05:47:25;;;;;;;6.90;3.65;;;6.20;99.90;;;;;;5035784;28;20234;-77
2021/12/09 05:49:54;;;;;;;6.53;3.80;;;6.30;99.90;;;;;;5035985;28;20210;-77
2021/12/09 05:52:21;;;;;;;11.55;5.10;;;6.20;99.90;;;;;;5035659;28;20242;-77
2021/12/09 05:54:48;;;;;;;7.97;4.05;;;6.00;99.90;;;;;;5035252;28;20632;-77
2021/12/09 05:57:15;;;;;;;6.00;3.53;;;6.20;99.90;;;;;;5037159;28;20202;-77
2021/12/09 05:59:43;;;;;;;9.32;4.28;;;6.00;99.90;;;;;;5038770;28;20238;-76
2021/12/09 06:02:11;;;;;;;11.18;4.60;;;6.20;99.90;;;;;;5036087;28;20334;-77
2021/12/09 06:04:38;;;;;;;8.05;4.20;;;6.10;99.90;;;;;;5036262;28;20203;-76
2021/12/09 06:07:07;;;;;;;9.02;4.68;;;6.30;99.90;;;;;;5037461;28;20222;-77
2021/12/09 06:09:34;;;;;;;14.35;4.50;;;6.10;99.90;;;;;;5037478;28;20605;-78
2021/12/09 06:12:01;;;;;;;8.68;3.88;;;6.00;99.90;;;;;;5037687;28;20235;-77
2021/12/09 06:14:28;;;;;;;11.68;4.65;;;6.00;99.90;;;;;;5038601;28;20210;-77
2021/12/09 06:16:55;;;;;;;12.23;4.78;;;6.00;99.90;;;;;;5036926;28;20206;-77
2021/12/09 06:19:22;;;;;;;11.32;4.60;;;6.00;99.90;;;;;;5038019;28;20209;-77
2021/12/09 06:21:49;;;;;;;12.82;4.82;;;5.90;99.90;;;;;;5038007;28;20235;-77
2021/12/09 06:24:18;;;;;;;8.88;4.55;;;5.70;99.90;;;;;;5038752;28;20213;-77
2021/12/09 06:26:46;;;;;;;15.57;5.05;;;6.00;99.90;;;;;;5037744;28;20309;-77
2021/12/09 06:29:12;;;;;;;11.02;4.05;;;5.80;99.90;;;;;;5036867;28;20256;-77
2021/12/09 06:31:39;;;;;;;7.10;4.07;;;5.80;99.90;;;;;;5038126;28;20314;-77
2021/12/09 06:34:06;;;;;;;10.48;3.33;;;5.70;99.90;;;;;;5035474;28;20209;-77
2021/12/09 06:36:33;;;;;;;6.72;3.60;;;5.80;99.90;;;;;;5037244;28;20276;-77
2021/12/09 06:39:00;;;;;;;13.73;4.72;;;5.80;99.90;;;;;;5035944;28;20251;-76
2021/12/09 06:41:28;;;;;;;17.27;4.50;;;5.80;99.90;;;;;;5035521;28;20753;-77
2021/12/09 06:43:56;;;;;;;6.78;3.60;;;5.60;99.90;;;;;;5035995;28;20294;-76
2021/12/09 06:46:22;;;;;;;11.15;3.80;;;5.90;99.90;;;;;;5036146;28;20211;-77
2021/12/09 06:48:50;;;;;;;9.70;4.30;;;5.70;99.90;;;;;;5037168;28;20202;-77
2021/12/09 06:51:17;;;;;;;8.20;4.05;;;5.70;99.90;;;;;;5039469;28;20226;-78
2021/12/09 06:53:44;;;;;;;10.38;5.53;;;5.90;99.90;;;;;;5040138;28;20784;-79
2021/12/09 06:56:11;;;;;;;10.95;5.32;;;5.80;99.90;;;;;;5041197;28;20231;-79
2021/12/09 06:58:39;;;;;;;14.88;4.68;;;5.60;99.90;;;;;;5040775;28;20217;-79
2021/12/09 07:01:08;;;;;;;7.15;4.00;;;5.70;99.90;;;;;;5042377;28;20223;-80
2021/12/09 07:03:38;;;;;;;7.18;4.00;;;5.80;99.90;;;;;;5042253;28;20207;-79
2021/12/09 07:06:08;;;;;;;9.20;4.45;;;5.80;99.90;;;;;;5041205;28;20202;-79
2021/12/09 07:08:41;;;;;;;9.43;4.43;;;5.70;99.90;;;;;;5042086;28;20199;-79
2021/12/09 07:11:08;;;;;;;10.73;4.60;;;5.80;99.90;;;;;;5041114;28;20245;-79
2021/12/09 07:13:35;;;;;;;7.75;3.67;;;5.80;99.90;;;;;;5047950;28;20763;-80
2021/12/09 07:16:04;;;;;;;9.82;3.63;;;5.70;99.90;;;;;;5050469;28;20274;-79
2021/12/09 07:18:31;;;;;;;9.70;3.78;;;5.60;99.90;;;;;;5041975;28;20191;-79
2021/12/09 07:20:58;;;;;;;7.88;3.95;;;5.60;99.90;;;;;;5040580;28;20238;-78
2021/12/09 07:23:25;;;;;;;9.80;3.90;;;5.70;99.90;;;;;;5038815;28;20203;-78
2021/12/09 07:25:52;;;;;;;12.48;4.10;;;5.70;99.90;;;;;;5043284;28;20211;-79
2021/12/09 07:28:19;;;;;;;7.30;3.33;;;5.80;99.90;;;;;;5046551;28;20211;-79
2021/12/09 07:30:46;;;;;;;10.13;3.65;;;5.80;99.90;;;;;;5047694;28;20293;-79
2021/12/09 07:33:14;;;;;;;7.57;3.70;;;5.80;99.90;;;;;;5046283;28;20216;-78
2021/12/09 07:35:43;;;;;;;12.15;4.10;;;5.80;99.90;;;;;;5047409;28;20234;-79
2021/12/09 07:38:10;;;;;;;7.30;3.90;;;5.70;99.90;;;;;;5046858;28;20314;-79
2021/12/09 07:40:37;;;;;;;10.75;3.50;;;5.90;99.90;;;;;;5047466;28;20274;-79
2021/12/09 07:43:05;;;;;;;8.50;4.63;;;5.80;99.90;;;;;;5049078;28;20241;-81
2021/12/09 07:45:32;;;;;;;11.07;4.60;;;6.00;99.90;;;;;;5045579;28;20275;-86
2021/12/09 07:47:59;;;;;;;21.48;4.35;;;6.00;99.90;;;;;;5046342;28;20708;-79
2021/12/09 07:50:31;;;;;;;7.80;4.18;;;5.90;99.90;;;;;;5041673;28;20211;-79
2021/12/09 07:52:59;;;;;;;10.82;4.15;;;5.90;99.90;;;;;;5040611;28;20262;-85
2021/12/09 07:55:26;;;;;;;7.10;3.78;;;6.20;99.90;;;;;;5042551;28;20294;-79
2021/12/09 07:57:53;;;;;;;8.98;5.00;;;6.20;99.90;;;;;;5052304;28;20211;-79
2021/12/09 08:00:23;;;;;;;8.30;4.25;;;6.20;99.90;;;;;;5049897;28;20270;-79
2021/12/09 08:02:50;;;;;;;6.22;3.50;;;6.20;99.90;;;;;;5039883;28;20223;-76
2021/12/09 08:05:18;;;;;;;8.07;3.92;;;6.00;99.90;;;;;;5038733;28;20203;-76
2021/12/09 08:07:47;;;;;;;7.18;3.72;;;6.00;99.90;;;;;;5042209;28;20215;-77
2021/12/09 08:10:16;;;;;;;11.55;4.57;;;6.20;99.90;;;;;;5044409;28;20222;-77
2021/12/09 08:12:44;;;;;;;9.48;3.60;;;6.00;99.90;;;;;;5041226;28;20235;-78
2021/12/09 08:15:13;;;;;;;7.88;4.15;;;6.00;99.90;;;;;;5042859;28;20210;-81
2021/12/09 08:17:58;;;;;;;10.63;4.35;;;6.10;99.90;;;;;;5037399;28;20578;-76
2021/12/09 08:20:26;;;;;;;7.75;3.92;;;6.00;99.90;;;;;;5041738;28;20258;-77
2021/12/09 08:22:55;;;;;;;27.85;11.48;;;6.00;99.90;;;;;;5037109;28;20219;-78
2021/12/09 08:25:23;;;;;;;8.65;4.05;;;5.90;99.90;;;;;;5037781;28;20210;-75
2021/12/09 08:27:50;;;;;;;11.45;4.30;;;6.20;99.90;;;;;;5034324;28;20207;-76
2021/12/09 08:30:19;;;;;;;6.93;3.97;;;6.40;99.90;;;;;;5034147;28;20225;-76
2021/12/09 08:32:46;;;;;;;6.85;3.60;;;6.30;99.90;;;;;;5037143;28;20221;-76
2021/12/09 08:35:15;;;;;;;10.57;3.85;;;6.20;99.90;;;;;;5039723;28;20269;-75
2021/12/09 08:37:42;;;;;;;11.88;4.32;;;6.60;99.90;;;;;;5039432;28;20206;-75
2021/12/09 08:40:11;;;;;;;11.27;4.88;;;6.60;99.90;;;;;;5039290;28;20212;-78
2021/12/09 08:42:38;;;;;;;14.10;4.00;;;6.50;99.90;;;;;;5039224;28;20305;-76
2021/12/09 08:45:09;;;;;;;11.27;3.97;;;6.50;99.90;;;;;;5038666;28;20228;-75
2021/12/09 08:47:36;;;;;;;10.88;4.28;;;6.60;99.90;;;;;;5038349;28;20191;-74
2021/12/09 08:50:03;;;;;;;7.72;3.90;;;6.70;99.90;;;;;;5039580;28;20294;-76
2021/12/09 08:52:29;;;;;;;7.78;3.55;;;6.70;99.90;;;;;;5036519;28;20317;-77
2021/12/09 08:54:56;;;;;;;6.95;4.10;;;6.50;99.90;;;;;;5037456;28;20212;-77
2021/12/09 08:57:25;;;;;;;9.05;4.45;;;6.60;99.90;;;;;;5037286;28;20221;-76
2021/12/09 08:59:52;;;;;;;6.65;4.10;;;6.50;99.90;;;;;;5036766;28;20234;-76
2021/12/09 09:02:19;;;;;;;12.00;4.10;;;6.50;99.90;;;;;;5036450;28;20231;-76
2021/12/09 09:04:46;;;;;;;6.72;3.83;;;6.70;99.90;;;;;;5036726;28;20207;-77
2021/12/09 09:07:12;;;;;;;11.75;4.40;;;6.90;99.90;;;;;;5036835;28;20214;-77
2021/12/09 09:09:41;;;;;;;8.75;3.50;;;6.90;99.90;;;;;;5036494;28;20361;-77
2021/12/09 09:12:10;;;;;;;10.75;4.05;;;6.70;99.90;;;;;;5035839;28;20227;-76
2021/12/09 09:14:39;;;;;;;7.90;4.15;;;6.80;99.90;;;;;;5036213;28;20230;-76
2021/12/09 09:17:05;;;;;;;12.93;4.50;;;6.80;99.90;;;;;;5036443;28;20692;-76
2021/12/09 09:19:32;;;;;;;6.57;3.78;;;6.80;99.90;;;;;;5037296;28;20211;-75
2021/12/09 09:21:59;;;;;;;6.20;4.22;;;6.70;99.90;;;;;;5037185;28;20598;-76
2021/12/09 09:24:26;;;;;;;6.82;3.65;;;6.80;99.90;;;;;;5036759;28;20213;-77
2021/12/09 09:26:53;;;;;;;6.95;3.63;;;6.90;99.90;;;;;;5036615;28;20239;-76
2021/12/09 09:29:20;;;;;;;10.30;4.47;;;6.90;99.90;;;;;;5036285;28;20210;-77
2021/12/09 09:31:48;;;;;;;7.60;3.70;;;6.80;99.90;;;;;;5036506;28;20253;-76
2021/12/09 09:34:15;;;;;;;10.60;4.00;;;6.80;99.90;;;;;;5042550;28;20598;-77
2021/12/09 09:36:44;;;;;;;7.45;4.43;;;6.90;99.90;;;;;;5044059;28;20582;-78
2021/12/09 09:39:18;;;;;;;6.38;4.35;;;6.70;99.90;;;;;;5036574;28;20211;-76
2021/12/09 09:41:55;;;;;;;8.93;4.25;;;6.90;99.90;;;;;;5042112;28;20211;-75
2021/12/09 09:44:28;;;;;;;6.38;4.57;;;6.90;99.90;;;;;;5038807;28;20206;-77
2021/12/09 09:46:59;;;;;;;7.25;3.75;;;7.10;99.90;;;;;;5037250;28;20690;-74
2021/12/09 09:49:26;;;;;;;7.00;3.95;;;7.10;99.90;;;;;;5035848;28;20211;-76
2021/12/09 09:51:56;;;;;;;6.85;4.35;;;7.10;99.90;;;;;;5037315;28;20589;-76
2021/12/09 09:54:23;;;;;;;11.25;4.30;;;7.20;99.90;;;;;;5035661;28;20220;-77
2021/12/09 09:56:50;;;;;;;9.80;4.95;;;7.00;99.90;;;;;;5035781;28;20214;-77
2021/12/09 09:59:17;;;;;;;7.63;5.10;;;7.00;99.90;;;;;;5035149;28;20207;-76
2021/12/09 10:01:46;;;;;;;12.15;5.68;;;7.10;99.90;;;;;;5035290;28;20771;-76
2021/12/09 10:04:21;;;;;;;6.40;3.95;;;6.90;99.90;;;;;;5037180;28;20229;-76
2021/12/09 10:06:49;;;;;;;6.75;3.75;;;6.90;99.90;;;;;;5036186;28;20198;-76
2021/12/09 10:09:17;;;;;;;6.68;3.42;;;7.20;99.90;;;;;;5035174;28;20245;-76
2021/12/09 10:11:44;;;;;;;9.55;4.28;;;7.20;99.90;;;;;;5035216;28;20231;-77
2021/12/09 10:14:14;;;;;;;10.25;4.38;;;7.30;99.90;;;;;;5035930;28;20694;-76
2021/12/09 10:16:42;;;;;;;8.50;4.18;;;7.20;99.90;;;;;;5035509;28;20215;-76
2021/12/09 10:19:19;;;;;;;17.08;4.75;;;7.20;99.90;;;;;;5035309;28;20220;-77
2021/12/09 10:21:46;;;;;;;10.55;4.38;;;7.40;99.90;;;;;;5035250;28;20239;-76
2021/12/09 10:24:14;;;;;;;6.78;4.30;;;7.50;99.90;;;;;;5034997;28;20303;-77
2021/12/09 10:26:41;;;;;;;10.05;4.50;;;7.70;99.90;;;;;;5034886;28;20264;-76
2021/12/09 10:29:13;;;;;;;8.43;5.00;;;7.70;99.90;;;;;;5035093;28;20208;-77
2021/12/09 10:31:47;;;;;;;10.30;4.78;;;7.60;99.90;;;;;;5035287;28;20270;-76
2021/12/09 10:34:32;;;;;;;6.95;3.13;;;7.50;99.90;;;;;;5035052;28;20263;-77
2021/12/09 10:37:06;;;;;;;8.18;4.88;;;7.80;99.90;;;;;;5036309;28;20228;-76
2021/12/09 10:39:39;;;;;;;7.13;4.97;;;7.70;99.90;;;;;;5035667;28;20210;-77
2021/12/09 10:42:09;;;;;;;5.00;2.80;;;7.50;99.90;;;;;;5035081;28;20231;-76
2021/12/09 10:44:43;;;;;;;6.25;3.75;;;7.70;99.90;;;;;;5035162;28;20198;-76
2021/12/09 10:47:15;;;;;;;6.15;3.42;;;7.70;99.90;;;;;;5034938;28;20196;-77
2021/12/09 10:50:05;;;;;;;6.90;3.15;;;7.70;99.90;;;;;;5034545;28;20261;-76
2021/12/09 10:52:37;;;;;;;9.68;3.65;;;7.70;99.90;;;;;;5035103;28;20268;-76
2021/12/09 10:55:10;;;;;;;5.45;3.22;;;7.70;99.90;;;;;;5034967;28;20215;-76
2021/12/09 10:57:37;;;;;;;5.25;3.10;;;7.60;99.90;;;;;;5034017;28;20210;-76
2021/12/09 11:00:24;;;;;;;5.32;3.10;;;7.70;99.90;;;;;;5035275;28;20204;-76
2021/12/09 11:03:04;;;;;;;9.50;3.55;;;7.60;99.90;;;;;;5034868;28;20599;-77
2021/12/09 11:05:34;;;;;;;6.22;3.10;;;7.90;99.90;;;;;;5035165;28;20267;-76
2021/12/09 11:08:26;;;;;;;4.90;2.80;;;7.70;99.90;;;;;;5036739;28;20188;-75
2021/12/09 11:11:06;;;;;;;5.28;2.90;;;8.00;99.90;;;;;;5036780;28;20206;-77
2021/12/09 11:13:46;;;;;;;9.40;2.90;;;7.80;99.90;;;;;;5036481;28;20683;-78
2021/12/09 11:16:22;;;;;;;7.68;3.28;;;7.80;99.90;;;;;;5048866;22;20674;-76
2021/12/09 11:18:49;;;;;;;6.90;3.40;;;7.80;99.90;;;;;;5014824;28;20287;-75
2021/12/09 11:21:20;;;;;;;8.27;4.40;;;7.80;99.90;;;;;;5014044;28;20580;-76
2021/12/09 11:23:54;;;;;;;8.63;3.30;;;7.90;99.90;;;;;;5015374;28;20287;-76
2021/12/09 11:26:41;;;;;;;5.72;3.00;;;7.80;99.90;;;;;;5013713;28;20261;-77
2021/12/09 11:29:11;;;;;;;6.85;3.10;;;7.90;99.90;;;;;;5017015;28;20588;-76
2021/12/09 11:31:57;;;;;;;6.90;2.95;;;7.80;99.90;;;;;;5016555;28;20210;-78
2021/12/09 11:34:28;;;;;;;6.32;2.83;;;7.90;99.90;;;;;;5015847;28;20319;-77
2021/12/09 11:37:03;;;;;;;5.68;2.90;;;8.00;99.90;;;;;;5016464;28;20260;-78
2021/12/09 11:39:34;;;;;;;5.85;2.88;;;7.90;99.90;;;;;;5015785;28;20220;-77
2021/12/09 11:42:21;;;;;;;7.05;3.38;;;8.00;99.90;;;;;;5016059;28;20220;-77
2021/12/09 11:44:50;;;;;;;6.75;2.90;;;8.10;99.90;;;;;;5013423;28;20243;-78
2021/12/09 11:47:18;;;;;;;6.93;2.75;;;8.20;99.90;;;;;;5015071;28;20577;-79
2021/12/09 11:49:46;;;;;;;8.35;4.00;;;8.00;99.90;;;;;;5015278;28;20212;-77
2021/12/09 11:52:17;;;;;;;5.18;3.03;;;8.10;99.90;;;;;;5015619;28;20213;-78
2021/12/09 11:54:54;;;;;;;8.38;2.78;;;8.00;99.90;;;;;;5016349;28;20311;-77
2021/12/09 11:57:33;;;;;;;9.90;2.95;;;8.00;99.90;;;;;;5016773;28;20224;-76
2021/12/09 12:06:47;;;;;;;6.78;2.70;;;8.20;99.90;;;;;;5015402;28;20267;-79
2021/12/09 12:12:34;;;;;;;7.28;3.25;;;8.30;99.90;;;;;;5014795;28;20216;-78
2021/12/09 12:15:37;;;;;;;8.23;3.85;;;8.20;99.90;;;;;;5014219;28;20221;-78
2021/12/09 12:18:23;;;;;;;8.13;3.35;;;8.30;99.90;;;;;;5014834;28;20626;-77
2021/12/09 12:21:03;;;;;;;6.85;3.35;;;8.30;99.90;;;;;;5015790;28;20209;-77
2021/12/09 12:23:35;;;;;;;7.78;3.40;;;8.40;99.90;;;;;;5014440;28;20213;-77
2021/12/09 12:29:45;;;;;;;5.05;2.67;;;8.30;99.90;;;;;;4992654;28;20211;-78
2021/12/09 12:32:42;;;;;;;6.47;2.63;;;8.40;99.90;;;;;;5015005;28;20570;-77
2021/12/09 12:38:08;;;;;;;7.55;3.10;;;8.60;99.90;;;;;;5009627;28;20197;-77
2021/12/09 12:40:42;;;;;;;9.10;3.60;;;8.30;99.90;;;;;;5014228;28;20209;-78
2021/12/09 12:43:23;;;;;;;4.80;2.78;;;8.00;99.90;;;;;;5013296;28;20193;-77
2021/12/09 12:46:10;;;;;;;8.45;2.38;;;8.30;99.90;;;;;;5013182;28;20286;-78
2021/12/09 12:49:06;;;;;;;5.65;2.22;;;8.30;99.90;;;;;;5013536;28;20207;-77
2021/12/09 12:51:42;;;;;;;9.15;2.50;;;8.30;99.90;;;;;;5013065;28;20267;-77
2021/12/09 12:54:47;;;;;;;6.90;2.33;;;8.30;99.90;;;;;;5013258;28;20221;-77
2021/12/09 12:57:29;;;;;;;10.35;2.72;;;8.10;99.90;;;;;;5013628;28;20235;-77
2021/12/09 13:00:10;;;;;;;7.97;1.77;;;8.20;99.90;;;;;;5014119;28;20252;-78
2021/12/09 13:11:11;;;;;;;6.45;2.72;;;7.90;99.90;;;;;;5013961;28;20189;-77
2021/12/09 13:13:47;;;;;;;5.55;2.47;;;7.80;99.90;;;;;;5013223;28;20208;-78
2021/12/09 13:16:21;;;;;;;8.65;2.20;;;7.90;99.90;;;;;;5013473;28;20244;-77
2021/12/09 13:19:03;;;;;;;8.88;2.30;;;7.90;99.90;;;;;;5016020;28;20204;-77
2021/12/09 13:21:54;;;;;;;8.85;2.17;;;8.10;99.90;;;;;;5016776;28;20292;-76
2021/12/09 13:24:35;;;;;;;5.93;2.85;;;8.20;99.90;;;;;;5016984;28;20211;-76
2021/12/09 13:47:21;;;;;;;6.18;2.35;;;8.10;99.90;;;;;;5019644;28;20224;-79
2021/12/09 13:49:58;;;;;;;8.43;2.10;;;8.30;99.90;;;;;;5020592;28;20236;-79
2021/12/09 13:55:15;;;;;;;10.98;2.28;;;8.00;99.90;;;;;;5023030;28;20215;-78
2021/12/09 13:57:44;;;;;;;6.05;2.20;;;8.30;99.90;;;;;;5022280;28;20545;-78
2021/12/09 14:00:31;;;;;;;10.70;3.95;;;8.10;99.90;;;;;;5023695;28;20334;-78